sensor_id;sensor_type;location;lat;lon;timestamp;temperature;humidity
6948;DHT22;3513;47.664;9.162;2022-12-18T00:00:42;-2.90;99.90
6948;DHT22;3513;47.664;9.162;2022-12-18T00:03:08;-2.80;99.90
6948;DHT22;3513;47.664;9.162;2022-12-18T00:05:33;-2.80;99.90
6948;DHT22;3513;47.664;9.162;2022-12-18T00:07:59;-2.80;99.90
6948;DHT22;3513;47.664;9.162;2022-12-18T00:10:24;-2.90;99.90
6948;DHT22;3513;47.664;9.162;2022-12-18T00:12:50;-2.90;99.90
6948;DHT22;3513;47.664;9.162;2022-12-18T00:15:15;-2.90;99.90
6948;DHT22;3513;47.664;9.162;2022-12-18T00:17:41;-2.90;99.90
6948;DHT22;3513;47.664;9.162;2022-12-18T00:20:07;-2.80;99.90
6948;DHT22;3513;47.664;9.162;2022-12-18T00:22:33;-2.90;99.90
6948;DHT22;3513;47.664;9.162;2022-12-18T00:24:58;-2.90;99.90
6948;DHT22;3513;47.664;9.162;2022-12-18T00:27:24;-2.80;99.90
6948;DHT22;3513;47.664;9.162;2022-12-18T00:29:50;-2.90;99.90
6948;DHT22;3513;47.664;9.162;2022-12-18T00:32:16;-2.90;99.90
6948;DHT22;3513;47.664;9.162;2022-12-18T00:34:41;-2.90;99.90
6948;DHT22;3513;47.664;9.162;2022-12-18T00:37:07;-2.80;99.90
6948;DHT22;3513;47.664;9.162;2022-12-18T00:39:32;-2.80;99.90
6948;DHT22;3513;47.664;9.162;2022-12-18T00:41:58;-2.70;99.90
6948;DHT22;3513;47.664;9.162;2022-12-18T00:44:42;-2.80;99.90
6948;DHT22;3513;47.664;9.162;2022-12-18T00:47:08;-2.70;99.90
6948;DHT22;3513;47.664;9.162;2022-12-18T00:49:33;-2.80;99.90
6948;DHT22;3513;47.664;9.162;2022-12-18T00:51:59;-2.80;99.90
6948;DHT22;3513;47.664;9.162;2022-12-18T00:54:25;-2.70;99.90
6948;DHT22;3513;47.664;9.162;2022-12-18T00:56:50;-2.70;99.90
6948;DHT22;3513;47.664;9.162;2022-12-18T00:59:17;-2.60;99.90
6948;DHT22;3513;47.664;9.162;2022-12-18T01:01:42;-2.60;99.90
6948;DHT22;3513;47.664;9.162;2022-12-18T01:04:08;-2.40;99.90
6948;DHT22;3513;47.664;9.162;2022-12-18T01:06:34;-2.40;99.90
6948;DHT22;3513;47.664;9.162;2022-12-18T01:08:59;-2.50;99.90
6948;DHT22;3513;47.664;9.162;2022-12-18T01:11:25;-2.50;99.90
6948;DHT22;3513;47.664;9.162;2022-12-18T01:13:52;-2.50;99.90
6948;DHT22;3513;47.664;9.162;2022-12-18T01:16:18;-2.50;99.90
6948;DHT22;3513;47.664;9.162;2022-12-18T01:18:44;-2.60;99.90
6948;DHT22;3513;47.664;9.162;2022-12-18T01:21:16;-2.70;99.90
6948;DHT22;3513;47.664;9.162;2022-12-18T01:23:45;-2.60;99.90
6948;DHT22;3513;47.664;9.162;2022-12-18T01:26:14;-2.60;99.90
6948;DHT22;3513;47.664;9.162;2022-12-18T01:28:40;-2.70;99.90
6948;DHT22;3513;47.664;9.162;2022-12-18T01:31:31;-2.90;99.90
6948;DHT22;3513;47.664;9.162;2022-12-18T01:33:57;-3.00;99.90
6948;DHT22;3513;47.664;9.162;2022-12-18T01:36:28;-3.00;99.90
6948;DHT22;3513;47.664;9.162;2022-12-18T01:38:55;-3.00;99.90
6948;DHT22;3513;47.664;9.162;2022-12-18T01:41:24;-3.00;99.90
6948;DHT22;3513;47.664;9.162;2022-12-18T01:43:56;-2.90;99.90
6948;DHT22;3513;47.664;9.162;2022-12-18T01:46:26;-2.90;99.90
6948;DHT22;3513;47.664;9.162;2022-12-18T01:48:57;-2.80;99.90
6948;DHT22;3513;47.664;9.162;2022-12-18T01:51:23;-2.70;99.90
6948;DHT22;3513;47.664;9.162;2022-12-18T01:53:49;-2.60;99.90
6948;DHT22;3513;47.664;9.162;2022-12-18T01:56:18;-2.70;99.90
6948;DHT22;3513;47.664;9.162;2022-12-18T01:58:58;-2.70;99.90
6948;DHT22;3513;47.664;9.162;2022-12-18T02:01:25;-2.60;99.90
6948;DHT22;3513;47.664;9.162;2022-12-18T02:03:52;-2.50;99.90
6948;DHT22;3513;47.664;9.162;2022-12-18T02:06:20;-2.40;99.90
6948;DHT22;3513;47.664;9.162;2022-12-18T02:08:58;-2.40;99.90
6948;DHT22;3513;47.664;9.162;2022-12-18T02:12:02;-2.40;99.90
6948;DHT22;3513;47.664;9.162;2022-12-18T02:17:38;-2.40;99.90
6948;DHT22;3513;47.664;9.162;2022-12-18T02:25:55;-2.20;99.90
6948;DHT22;3513;47.664;9.162;2022-12-18T02:28:30;-2.20;99.90
6948;DHT22;3513;47.664;9.162;2022-12-18T02:30:58;-2.30;99.90
6948;DHT22;3513;47.664;9.162;2022-12-18T02:33:25;0.00;99.90
6948;DHT22;3513;47.664;9.162;2022-12-18T02:35:54;-2.10;99.90
6948;DHT22;3513;47.664;9.162;2022-12-18T02:38:20;-2.30;99.90
6948;DHT22;3513;47.664;9.162;2022-12-18T02:40:46;0.20;99.90
6948;DHT22;3513;47.664;9.162;2022-12-18T02:43:15;-0.30;99.90
6948;DHT22;3513;47.664;9.162;2022-12-18T02:45:56;-2.20;99.90
6948;DHT22;3513;47.664;9.162;2022-12-18T02:48:29;-2.20;99.90
6948;DHT22;3513;47.664;9.162;2022-12-18T02:51:20;-2.00;99.90
6948;DHT22;3513;47.664;9.162;2022-12-18T02:54:10;-2.10;99.90
6948;DHT22;3513;47.664;9.162;2022-12-18T02:56:49;-2.20;99.90
6948;DHT22;3513;47.664;9.162;2022-12-18T02:59:22;-2.10;99.90
6948;DHT22;3513;47.664;9.162;2022-12-18T03:04:41;-2.10;99.90
6948;DHT22;3513;47.664;9.162;2022-12-18T03:07:12;-2.20;99.90
6948;DHT22;3513;47.664;9.162;2022-12-18T03:09:42;-2.10;99.90
6948;DHT22;3513;47.664;9.162;2022-12-18T03:12:32;-2.10;99.90
6948;DHT22;3513;47.664;9.162;2022-12-18T03:17:33;-2.30;99.90
6948;DHT22;3513;47.664;9.162;2022-12-18T03:20:04;-2.30;99.90
6948;DHT22;3513;47.664;9.162;2022-12-18T03:22:32;-0.90;99.90
6948;DHT22;3513;47.664;9.162;2022-12-18T03:25:01;-1.80;99.90
6948;DHT22;3513;47.664;9.162;2022-12-18T03:27:28;0.40;99.90
6948;DHT22;3513;47.664;9.162;2022-12-18T03:30:03;-2.00;99.90
6948;DHT22;3513;47.664;9.162;2022-12-18T03:32:41;-2.00;99.90
6948;DHT22;3513;47.664;9.162;2022-12-18T03:35:11;-2.00;99.90
6948;DHT22;3513;47.664;9.162;2022-12-18T03:37:37;-1.90;99.90
6948;DHT22;3513;47.664;9.162;2022-12-18T03:40:04;-1.90;99.90
6948;DHT22;3513;47.664;9.162;2022-12-18T03:42:39;-2.00;99.90
6948;DHT22;3513;47.664;9.162;2022-12-18T03:45:39;-1.90;99.90
6948;DHT22;3513;47.664;9.162;2022-12-18T03:50:56;-1.70;99.90
6948;DHT22;3513;47.664;9.162;2022-12-18T03:55:54;-1.90;99.90
6948;DHT22;3513;47.664;9.162;2022-12-18T03:58:24;-2.00;99.90
6948;DHT22;3513;47.664;9.162;2022-12-18T04:00:52;-2.10;99.90
6948;DHT22;3513;47.664;9.162;2022-12-18T04:03:20;-2.10;99.90
6948;DHT22;3513;47.664;9.162;2022-12-18T04:05:48;-2.10;99.90
6948;DHT22;3513;47.664;9.162;2022-12-18T04:08:16;-2.20;99.90
6948;DHT22;3513;47.664;9.162;2022-12-18T04:10:41;-2.10;99.90
6948;DHT22;3513;47.664;9.162;2022-12-18T04:13:08;-2.10;99.90
6948;DHT22;3513;47.664;9.162;2022-12-18T04:15:35;-2.10;99.90
6948;DHT22;3513;47.664;9.162;2022-12-18T04:18:01;-2.20;99.90
6948;DHT22;3513;47.664;9.162;2022-12-18T04:20:27;-2.20;99.90
6948;DHT22;3513;47.664;9.162;2022-12-18T04:22:52;-2.10;99.90
6948;DHT22;3513;47.664;9.162;2022-12-18T04:25:18;-2.20;99.90
6948;DHT22;3513;47.664;9.162;2022-12-18T04:27:44;-2.30;99.90
6948;DHT22;3513;47.664;9.162;2022-12-18T04:30:10;-2.20;99.90
6948;DHT22;3513;47.664;9.162;2022-12-18T04:32:35;-2.20;99.90
6948;DHT22;3513;47.664;9.162;2022-12-18T04:35:02;-2.30;99.90
6948;DHT22;3513;47.664;9.162;2022-12-18T04:37:29;-2.40;99.90
6948;DHT22;3513;47.664;9.162;2022-12-18T04:39:55;-2.50;99.90
6948;DHT22;3513;47.664;9.162;2022-12-18T04:42:21;-2.50;99.90
6948;DHT22;3513;47.664;9.162;2022-12-18T04:44:46;-2.50;99.90
6948;DHT22;3513;47.664;9.162;2022-12-18T04:47:12;-2.40;99.90
6948;DHT22;3513;47.664;9.162;2022-12-18T04:49:37;-2.20;99.90
6948;DHT22;3513;47.664;9.162;2022-12-18T04:52:11;-2.20;99.90
6948;DHT22;3513;47.664;9.162;2022-12-18T04:54:36;-2.10;99.90
6948;DHT22;3513;47.664;9.162;2022-12-18T04:57:02;-2.10;99.90
6948;DHT22;3513;47.664;9.162;2022-12-18T04:59:27;-2.20;99.90
6948;DHT22;3513;47.664;9.162;2022-12-18T05:01:53;-2.30;99.90
6948;DHT22;3513;47.664;9.162;2022-12-18T05:04:19;-2.40;99.90
6948;DHT22;3513;47.664;9.162;2022-12-18T05:06:44;-2.40;99.90
6948;DHT22;3513;47.664;9.162;2022-12-18T05:09:10;-2.40;99.90
6948;DHT22;3513;47.664;9.162;2022-12-18T05:11:35;-2.40;99.90
6948;DHT22;3513;47.664;9.162;2022-12-18T05:14:01;-2.40;99.90
6948;DHT22;3513;47.664;9.162;2022-12-18T05:16:27;-2.40;99.90
6948;DHT22;3513;47.664;9.162;2022-12-18T05:18:52;-2.30;99.90
6948;DHT22;3513;47.664;9.162;2022-12-18T05:21:18;-3.70;99.90
6948;DHT22;3513;47.664;9.162;2022-12-18T05:23:44;-2.20;99.90
6948;DHT22;3513;47.664;9.162;2022-12-18T05:26:15;-2.20;99.90
6948;DHT22;3513;47.664;9.162;2022-12-18T05:28:40;-2.20;99.90
6948;DHT22;3513;47.664;9.162;2022-12-18T05:31:06;-2.30;99.90
6948;DHT22;3513;47.664;9.162;2022-12-18T05:33:33;-2.40;99.90
6948;DHT22;3513;47.664;9.162;2022-12-18T05:36:05;-2.40;99.90
6948;DHT22;3513;47.664;9.162;2022-12-18T05:38:32;-2.40;99.90
6948;DHT22;3513;47.664;9.162;2022-12-18T05:40:58;-2.30;99.90
6948;DHT22;3513;47.664;9.162;2022-12-18T05:43:26;-2.30;99.90
6948;DHT22;3513;47.664;9.162;2022-12-18T05:45:52;-2.30;99.90
6948;DHT22;3513;47.664;9.162;2022-12-18T05:48:19;-2.30;99.90
6948;DHT22;3513;47.664;9.162;2022-12-18T05:50:46;-2.10;99.90
6948;DHT22;3513;47.664;9.162;2022-12-18T05:53:14;-2.10;99.90
6948;DHT22;3513;47.664;9.162;2022-12-18T05:55:40;-1.90;99.90
6948;DHT22;3513;47.664;9.162;2022-12-18T05:58:08;-1.90;99.90
6948;DHT22;3513;47.664;9.162;2022-12-18T06:00:35;-1.70;99.90
6948;DHT22;3513;47.664;9.162;2022-12-18T06:03:01;-1.70;99.90
6948;DHT22;3513;47.664;9.162;2022-12-18T06:05:27;-1.80;99.90
6948;DHT22;3513;47.664;9.162;2022-12-18T06:07:53;-1.90;99.90
6948;DHT22;3513;47.664;9.162;2022-12-18T06:10:19;-2.00;99.90
6948;DHT22;3513;47.664;9.162;2022-12-18T06:12:45;-2.00;99.90
6948;DHT22;3513;47.664;9.162;2022-12-18T06:15:10;-2.00;99.90
6948;DHT22;3513;47.664;9.162;2022-12-18T06:17:37;-2.00;99.90
6948;DHT22;3513;47.664;9.162;2022-12-18T06:20:03;-2.00;99.90
6948;DHT22;3513;47.664;9.162;2022-12-18T06:22:31;-2.00;99.90
6948;DHT22;3513;47.664;9.162;2022-12-18T06:24:57;-2.00;99.90
6948;DHT22;3513;47.664;9.162;2022-12-18T06:27:24;-1.90;99.90
6948;DHT22;3513;47.664;9.162;2022-12-18T06:29:50;-1.80;99.90
6948;DHT22;3513;47.664;9.162;2022-12-18T06:32:15;-1.90;99.90
6948;DHT22;3513;47.664;9.162;2022-12-18T06:34:42;-1.90;99.90
6948;DHT22;3513;47.664;9.162;2022-12-18T06:37:07;-1.80;99.90
6948;DHT22;3513;47.664;9.162;2022-12-18T06:39:33;-1.80;99.90
6948;DHT22;3513;47.664;9.162;2022-12-18T06:41:58;-1.70;99.90
6948;DHT22;3513;47.664;9.162;2022-12-18T06:44:24;-1.60;99.90
6948;DHT22;3513;47.664;9.162;2022-12-18T06:46:49;-1.60;99.90
6948;DHT22;3513;47.664;9.162;2022-12-18T06:49:15;-1.60;99.90
6948;DHT22;3513;47.664;9.162;2022-12-18T06:51:41;-1.50;99.90
6948;DHT22;3513;47.664;9.162;2022-12-18T06:54:07;-1.50;99.90
6948;DHT22;3513;47.664;9.162;2022-12-18T06:56:32;-1.60;99.90
6948;DHT22;3513;47.664;9.162;2022-12-18T06:58:58;-1.90;99.90
6948;DHT22;3513;47.664;9.162;2022-12-18T07:01:24;-1.90;99.90
6948;DHT22;3513;47.664;9.162;2022-12-18T07:03:54;-1.90;99.90
6948;DHT22;3513;47.664;9.162;2022-12-18T07:06:22;-1.80;99.90
6948;DHT22;3513;47.664;9.162;2022-12-18T07:08:49;-1.80;99.90
6948;DHT22;3513;47.664;9.162;2022-12-18T07:11:16;-1.80;99.90
6948;DHT22;3513;47.664;9.162;2022-12-18T07:13:42;-1.70;99.90
6948;DHT22;3513;47.664;9.162;2022-12-18T07:16:11;-1.70;99.90
6948;DHT22;3513;47.664;9.162;2022-12-18T07:18:37;-1.60;99.90
6948;DHT22;3513;47.664;9.162;2022-12-18T07:21:04;-1.80;99.90
6948;DHT22;3513;47.664;9.162;2022-12-18T07:23:31;-1.90;99.90
6948;DHT22;3513;47.664;9.162;2022-12-18T07:26:09;-2.00;99.90
6948;DHT22;3513;47.664;9.162;2022-12-18T07:28:39;-2.00;99.90
6948;DHT22;3513;47.664;9.162;2022-12-18T07:31:06;-1.80;99.90
6948;DHT22;3513;47.664;9.162;2022-12-18T07:33:33;-1.70;99.90
6948;DHT22;3513;47.664;9.162;2022-12-18T07:36:04;-1.60;99.90
6948;DHT22;3513;47.664;9.162;2022-12-18T07:38:31;-1.70;99.90
6948;DHT22;3513;47.664;9.162;2022-12-18T07:41:01;-1.80;99.90
6948;DHT22;3513;47.664;9.162;2022-12-18T07:43:27;-1.80;99.90
6948;DHT22;3513;47.664;9.162;2022-12-18T07:45:53;-1.80;99.90
6948;DHT22;3513;47.664;9.162;2022-12-18T07:48:18;-1.80;99.90
6948;DHT22;3513;47.664;9.162;2022-12-18T07:50:44;-1.90;99.90
6948;DHT22;3513;47.664;9.162;2022-12-18T07:53:09;-1.90;99.90
6948;DHT22;3513;47.664;9.162;2022-12-18T07:55:35;-1.80;99.90
6948;DHT22;3513;47.664;9.162;2022-12-18T07:58:02;-1.80;99.90
6948;DHT22;3513;47.664;9.162;2022-12-18T08:00:27;-1.70;99.90
6948;DHT22;3513;47.664;9.162;2022-12-18T08:02:53;-1.70;99.90
6948;DHT22;3513;47.664;9.162;2022-12-18T08:05:19;-1.60;99.90
6948;DHT22;3513;47.664;9.162;2022-12-18T08:07:46;-1.60;99.90
6948;DHT22;3513;47.664;9.162;2022-12-18T08:10:12;-1.70;99.90
6948;DHT22;3513;47.664;9.162;2022-12-18T08:12:37;-1.80;99.90
6948;DHT22;3513;47.664;9.162;2022-12-18T08:15:04;-1.80;99.90
6948;DHT22;3513;47.664;9.162;2022-12-18T08:17:30;-1.80;99.90
6948;DHT22;3513;47.664;9.162;2022-12-18T08:19:55;-1.80;99.90
6948;DHT22;3513;47.664;9.162;2022-12-18T08:22:21;-1.70;99.90
6948;DHT22;3513;47.664;9.162;2022-12-18T08:24:47;-1.70;99.90
6948;DHT22;3513;47.664;9.162;2022-12-18T08:27:12;-1.80;99.90
6948;DHT22;3513;47.664;9.162;2022-12-18T08:29:38;-1.80;99.90
6948;DHT22;3513;47.664;9.162;2022-12-18T08:32:04;-1.80;99.90
6948;DHT22;3513;47.664;9.162;2022-12-18T08:34:29;-1.70;99.90
6948;DHT22;3513;47.664;9.162;2022-12-18T08:36:55;-1.70;99.90
6948;DHT22;3513;47.664;9.162;2022-12-18T08:39:21;-1.60;99.90
6948;DHT22;3513;47.664;9.162;2022-12-18T08:41:47;-1.50;99.90
6948;DHT22;3513;47.664;9.162;2022-12-18T08:44:32;-1.40;99.90
6948;DHT22;3513;47.664;9.162;2022-12-18T08:47:07;-1.40;99.90
6948;DHT22;3513;47.664;9.162;2022-12-18T08:49:34;-1.30;99.90
6948;DHT22;3513;47.664;9.162;2022-12-18T08:52:00;-1.30;99.90
6948;DHT22;3513;47.664;9.162;2022-12-18T08:54:28;-1.30;99.90
6948;DHT22;3513;47.664;9.162;2022-12-18T08:56:53;-1.40;99.90
6948;DHT22;3513;47.664;9.162;2022-12-18T08:59:19;-1.40;99.90
6948;DHT22;3513;47.664;9.162;2022-12-18T09:01:46;-1.40;99.90
6948;DHT22;3513;47.664;9.162;2022-12-18T09:04:12;-1.30;99.90
6948;DHT22;3513;47.664;9.162;2022-12-18T09:06:38;-1.20;99.90
6948;DHT22;3513;47.664;9.162;2022-12-18T09:09:04;-1.10;99.90
6948;DHT22;3513;47.664;9.162;2022-12-18T09:11:31;-1.30;99.90
6948;DHT22;3513;47.664;9.162;2022-12-18T09:13:59;-1.10;99.90
6948;DHT22;3513;47.664;9.162;2022-12-18T09:16:25;-1.20;99.90
6948;DHT22;3513;47.664;9.162;2022-12-18T09:18:51;-1.10;99.90
6948;DHT22;3513;47.664;9.162;2022-12-18T09:21:20;-1.10;99.90
6948;DHT22;3513;47.664;9.162;2022-12-18T09:23:50;-1.10;99.90
6948;DHT22;3513;47.664;9.162;2022-12-18T09:26:16;-1.00;99.90
6948;DHT22;3513;47.664;9.162;2022-12-18T09:28:42;-1.10;99.90
6948;DHT22;3513;47.664;9.162;2022-12-18T09:31:09;-0.80;99.90
6948;DHT22;3513;47.664;9.162;2022-12-18T09:33:35;-1.20;99.90
6948;DHT22;3513;47.664;9.162;2022-12-18T09:36:03;-1.20;99.90
6948;DHT22;3513;47.664;9.162;2022-12-18T09:38:30;-1.20;99.90
6948;DHT22;3513;47.664;9.162;2022-12-18T09:43:47;-1.00;99.90
6948;DHT22;3513;47.664;9.162;2022-12-18T09:46:42;-1.00;99.90
6948;DHT22;3513;47.664;9.162;2022-12-18T09:49:13;-1.00;99.90
6948;DHT22;3513;47.664;9.162;2022-12-18T09:54:22;-0.80;99.90
6948;DHT22;3513;47.664;9.162;2022-12-18T09:56:49;-0.70;99.90
6948;DHT22;3513;47.664;9.162;2022-12-18T10:01:46;-0.90;99.90
6948;DHT22;3513;47.664;9.162;2022-12-18T10:04:12;-0.80;99.90
6948;DHT22;3513;47.664;9.162;2022-12-18T10:07:19;-0.80;99.90
6948;DHT22;3513;47.664;9.162;2022-12-18T10:10:02;-0.70;99.90
6948;DHT22;3513;47.664;9.162;2022-12-18T10:15:30;-0.90;99.90
6948;DHT22;3513;47.664;9.162;2022-12-18T10:17:59;-0.90;99.90
6948;DHT22;3513;47.664;9.162;2022-12-18T10:20:40;-1.00;99.90
6948;DHT22;3513;47.664;9.162;2022-12-18T10:23:28;-1.10;99.90
6948;DHT22;3513;47.664;9.162;2022-12-18T10:26:09;-1.10;99.90
6948;DHT22;3513;47.664;9.162;2022-12-18T10:28:40;-1.10;99.90
6948;DHT22;3513;47.664;9.162;2022-12-18T10:31:21;-1.10;99.90
6948;DHT22;3513;47.664;9.162;2022-12-18T10:33:47;-1.00;99.90
6948;DHT22;3513;47.664;9.162;2022-12-18T10:36:13;-1.00;99.90
6948;DHT22;3513;47.664;9.162;2022-12-18T10:38:39;-1.00;99.90
6948;DHT22;3513;47.664;9.162;2022-12-18T10:46:42;-0.80;99.90
6948;DHT22;3513;47.664;9.162;2022-12-18T10:49:23;-0.80;99.90
6948;DHT22;3513;47.664;9.162;2022-12-18T10:51:51;-0.90;99.90
6948;DHT22;3513;47.664;9.162;2022-12-18T10:54:21;-0.90;99.90
6948;DHT22;3513;47.664;9.162;2022-12-18T10:56:47;-0.90;99.90
6948;DHT22;3513;47.664;9.162;2022-12-18T10:59:14;-0.90;99.90
6948;DHT22;3513;47.664;9.162;2022-12-18T11:04:18;-0.90;99.90
6948;DHT22;3513;47.664;9.162;2022-12-18T11:06:58;-0.90;99.90
6948;DHT22;3513;47.664;9.162;2022-12-18T11:09:45;-0.80;99.90
6948;DHT22;3513;47.664;9.162;2022-12-18T11:12:17;-0.80;99.90
6948;DHT22;3513;47.664;9.162;2022-12-18T11:14:49;-0.80;99.90
6948;DHT22;3513;47.664;9.162;2022-12-18T11:19:52;-0.80;99.90
6948;DHT22;3513;47.664;9.162;2022-12-18T11:22:27;-0.80;99.90
6948;DHT22;3513;47.664;9.162;2022-12-18T11:25:05;-0.80;99.90
6948;DHT22;3513;47.664;9.162;2022-12-18T11:27:32;-0.90;99.90
6948;DHT22;3513;47.664;9.162;2022-12-18T11:32:55;-0.80;99.90
6948;DHT22;3513;47.664;9.162;2022-12-18T11:35:50;-0.80;99.90
6948;DHT22;3513;47.664;9.162;2022-12-18T11:38:29;-0.80;99.90
6948;DHT22;3513;47.664;9.162;2022-12-18T11:44:01;-0.90;99.90
6948;DHT22;3513;47.664;9.162;2022-12-18T11:46:39;-1.00;99.90
6948;DHT22;3513;47.664;9.162;2022-12-18T11:49:17;-0.90;99.90
6948;DHT22;3513;47.664;9.162;2022-12-18T11:54:27;-0.70;99.90
6948;DHT22;3513;47.664;9.162;2022-12-18T11:57:02;-0.60;99.90
6948;DHT22;3513;47.664;9.162;2022-12-18T11:59:54;-0.60;99.90
6948;DHT22;3513;47.664;9.162;2022-12-18T12:05:41;-0.70;99.90
6948;DHT22;3513;47.664;9.162;2022-12-18T12:10:58;-0.90;99.90
6948;DHT22;3513;47.664;9.162;2022-12-18T12:13:50;-0.80;99.90
6948;DHT22;3513;47.664;9.162;2022-12-18T12:16:37;-0.70;99.90
6948;DHT22;3513;47.664;9.162;2022-12-18T12:27:48;-0.60;99.90
6948;DHT22;3513;47.664;9.162;2022-12-18T12:40:32;-0.50;99.90
6948;DHT22;3513;47.664;9.162;2022-12-18T12:43:25;-0.60;99.90
6948;DHT22;3513;47.664;9.162;2022-12-18T12:45:55;-0.70;99.90
6948;DHT22;3513;47.664;9.162;2022-12-18T12:51:02;-0.80;99.90
6948;DHT22;3513;47.664;9.162;2022-12-18T12:53:32;-0.80;99.90
6948;DHT22;3513;47.664;9.162;2022-12-18T12:55:59;-0.80;99.90
6948;DHT22;3513;47.664;9.162;2022-12-18T13:04:17;-0.60;99.90
6948;DHT22;3513;47.664;9.162;2022-12-18T13:06:50;-0.50;99.90
6948;DHT22;3513;47.664;9.162;2022-12-18T13:09:20;-0.40;99.90
6948;DHT22;3513;47.664;9.162;2022-12-18T13:11:46;-0.50;99.90
6948;DHT22;3513;47.664;9.162;2022-12-18T13:14:39;-0.60;99.90
6948;DHT22;3513;47.664;9.162;2022-12-18T13:17:24;-0.60;99.90
6948;DHT22;3513;47.664;9.162;2022-12-18T13:20:13;-0.60;99.90
6948;DHT22;3513;47.664;9.162;2022-12-18T13:22:47;-0.60;99.90
6948;DHT22;3513;47.664;9.162;2022-12-18T13:25:35;-1.20;99.90
6948;DHT22;3513;47.664;9.162;2022-12-18T13:28:08;-0.70;99.90
6948;DHT22;3513;47.664;9.162;2022-12-18T13:38:38;-0.90;99.90
6948;DHT22;3513;47.664;9.162;2022-12-18T13:43:49;-1.00;99.90
6948;DHT22;3513;47.664;9.162;2022-12-18T13:46:30;-0.90;99.90
6948;DHT22;3513;47.664;9.162;2022-12-18T13:51:48;-0.90;99.90
6948;DHT22;3513;47.664;9.162;2022-12-18T13:54:37;-1.00;99.90
6948;DHT22;3513;47.664;9.162;2022-12-18T13:57:05;-0.90;99.90
6948;DHT22;3513;47.664;9.162;2022-12-18T13:59:39;-1.00;99.90
6948;DHT22;3513;47.664;9.162;2022-12-18T14:02:21;-1.10;99.90
6948;DHT22;3513;47.664;9.162;2022-12-18T14:04:49;-1.10;99.90
6948;DHT22;3513;47.664;9.162;2022-12-18T14:07:24;-0.90;99.90
6948;DHT22;3513;47.664;9.162;2022-12-18T14:09:55;-0.80;99.90
6948;DHT22;3513;47.664;9.162;2022-12-18T14:12:27;-0.80;99.90
6948;DHT22;3513;47.664;9.162;2022-12-18T14:15:35;-0.80;99.90
6948;DHT22;3513;47.664;9.162;2022-12-18T14:20:54;-0.80;99.90
6948;DHT22;3513;47.664;9.162;2022-12-18T14:25:58;-0.70;99.90
6948;DHT22;3513;47.664;9.162;2022-12-18T14:28:24;-0.80;99.90
6948;DHT22;3513;47.664;9.162;2022-12-18T14:30:52;-0.90;99.90
6948;DHT22;3513;47.664;9.162;2022-12-18T14:33:26;-0.90;99.90
6948;DHT22;3513;47.664;9.162;2022-12-18T14:36:04;-0.90;99.90
6948;DHT22;3513;47.664;9.162;2022-12-18T14:38:38;-0.80;99.90
6948;DHT22;3513;47.664;9.162;2022-12-18T14:41:08;-0.80;99.90
6948;DHT22;3513;47.664;9.162;2022-12-18T14:43:37;-0.90;99.90
6948;DHT22;3513;47.664;9.162;2022-12-18T14:46:05;-1.00;99.90
6948;DHT22;3513;47.664;9.162;2022-12-18T14:48:41;-1.00;99.90
6948;DHT22;3513;47.664;9.162;2022-12-18T14:53:54;-1.20;99.90
6948;DHT22;3513;47.664;9.162;2022-12-18T14:56:35;-1.20;99.90
6948;DHT22;3513;47.664;9.162;2022-12-18T14:59:14;-1.20;99.90
6948;DHT22;3513;47.664;9.162;2022-12-18T15:02:15;-1.00;99.90
6948;DHT22;3513;47.664;9.162;2022-12-18T15:04:43;-1.10;99.90
6948;DHT22;3513;47.664;9.162;2022-12-18T15:07:13;-1.10;99.90
6948;DHT22;3513;47.664;9.162;2022-12-18T15:09:41;-1.00;99.90
6948;DHT22;3513;47.664;9.162;2022-12-18T15:12:28;-1.10;99.90
6948;DHT22;3513;47.664;9.162;2022-12-18T15:14:58;-1.20;99.90
6948;DHT22;3513;47.664;9.162;2022-12-18T15:17:24;-1.30;99.90
6948;DHT22;3513;47.664;9.162;2022-12-18T15:19:52;-1.20;99.90
6948;DHT22;3513;47.664;9.162;2022-12-18T15:24:46;-1.20;99.90
6948;DHT22;3513;47.664;9.162;2022-12-18T15:27:41;-1.10;99.90
6948;DHT22;3513;47.664;9.162;2022-12-18T15:30:16;-1.10;99.90
6948;DHT22;3513;47.664;9.162;2022-12-18T15:32:44;-1.20;99.90
6948;DHT22;3513;47.664;9.162;2022-12-18T15:35:22;-0.10;99.90
6948;DHT22;3513;47.664;9.162;2022-12-18T15:37:49;-1.10;99.90
6948;DHT22;3513;47.664;9.162;2022-12-18T15:40:18;-1.20;99.90
6948;DHT22;3513;47.664;9.162;2022-12-18T15:42:45;-1.20;99.90
6948;DHT22;3513;47.664;9.162;2022-12-18T15:45:30;-1.30;99.90
6948;DHT22;3513;47.664;9.162;2022-12-18T15:47:56;-1.30;99.90
6948;DHT22;3513;47.664;9.162;2022-12-18T15:50:25;-1.40;99.90
6948;DHT22;3513;47.664;9.162;2022-12-18T15:52:53;-1.70;99.90
6948;DHT22;3513;47.664;9.162;2022-12-18T15:55:42;-1.40;99.90
6948;DHT22;3513;47.664;9.162;2022-12-18T15:58:30;-1.50;99.90
6948;DHT22;3513;47.664;9.162;2022-12-18T16:00:57;-1.50;99.90
6948;DHT22;3513;47.664;9.162;2022-12-18T16:03:34;-1.40;99.90
6948;DHT22;3513;47.664;9.162;2022-12-18T16:06:08;-1.50;99.90
6948;DHT22;3513;47.664;9.162;2022-12-18T16:09:07;-2.00;99.90
6948;DHT22;3513;47.664;9.162;2022-12-18T16:11:36;-1.40;99.90
6948;DHT22;3513;47.664;9.162;2022-12-18T16:14:24;-1.50;99.90
6948;DHT22;3513;47.664;9.162;2022-12-18T16:16:59;-2.30;99.90
6948;DHT22;3513;47.664;9.162;2022-12-18T16:19:26;-1.40;99.90
6948;DHT22;3513;47.664;9.162;2022-12-18T16:21:55;-1.60;99.90
6948;DHT22;3513;47.664;9.162;2022-12-18T16:24:25;-1.60;99.90
6948;DHT22;3513;47.664;9.162;2022-12-18T16:26:53;-1.70;99.90
6948;DHT22;3513;47.664;9.162;2022-12-18T16:29:23;-1.70;99.90
6948;DHT22;3513;47.664;9.162;2022-12-18T16:31:53;-1.60;99.90
6948;DHT22;3513;47.664;9.162;2022-12-18T16:34:28;-1.70;99.90
6948;DHT22;3513;47.664;9.162;2022-12-18T16:36:59;-1.60;99.90
6948;DHT22;3513;47.664;9.162;2022-12-18T16:39:34;-1.60;99.90
6948;DHT22;3513;47.664;9.162;2022-12-18T16:42:16;-1.60;99.90
6948;DHT22;3513;47.664;9.162;2022-12-18T16:44:45;-2.90;99.90
6948;DHT22;3513;47.664;9.162;2022-12-18T16:47:12;-1.60;99.90
6948;DHT22;3513;47.664;9.162;2022-12-18T16:49:38;-1.60;99.90
6948;DHT22;3513;47.664;9.162;2022-12-18T16:52:07;-1.50;99.90
6948;DHT22;3513;47.664;9.162;2022-12-18T16:54:36;-1.50;99.90
6948;DHT22;3513;47.664;9.162;2022-12-18T16:57:03;-1.60;99.90
6948;DHT22;3513;47.664;9.162;2022-12-18T16:59:33;-1.50;99.90
6948;DHT22;3513;47.664;9.162;2022-12-18T17:02:10;-1.50;99.90
6948;DHT22;3513;47.664;9.162;2022-12-18T17:04:37;-1.40;99.90
6948;DHT22;3513;47.664;9.162;2022-12-18T17:07:03;-1.40;99.90
6948;DHT22;3513;47.664;9.162;2022-12-18T17:09:30;-1.30;99.90
6948;DHT22;3513;47.664;9.162;2022-12-18T17:11:58;-1.30;99.90
6948;DHT22;3513;47.664;9.162;2022-12-18T17:14:25;0.50;99.90
6948;DHT22;3513;47.664;9.162;2022-12-18T17:16:52;-1.10;99.90
6948;DHT22;3513;47.664;9.162;2022-12-18T17:19:18;-1.10;99.90
6948;DHT22;3513;47.664;9.162;2022-12-18T17:21:47;-1.20;99.90
6948;DHT22;3513;47.664;9.162;2022-12-18T17:24:13;-1.20;99.90
6948;DHT22;3513;47.664;9.162;2022-12-18T17:26:39;-1.10;99.90
6948;DHT22;3513;47.664;9.162;2022-12-18T17:29:05;-1.20;99.90
6948;DHT22;3513;47.664;9.162;2022-12-18T17:31:31;-1.30;99.90
6948;DHT22;3513;47.664;9.162;2022-12-18T17:33:58;-1.30;99.90
6948;DHT22;3513;47.664;9.162;2022-12-18T17:36:24;-1.30;99.90
6948;DHT22;3513;47.664;9.162;2022-12-18T17:38:55;-1.30;99.90
6948;DHT22;3513;47.664;9.162;2022-12-18T17:41:23;-1.30;99.90
6948;DHT22;3513;47.664;9.162;2022-12-18T17:43:59;-1.30;99.90
6948;DHT22;3513;47.664;9.162;2022-12-18T17:46:28;-1.20;99.90
6948;DHT22;3513;47.664;9.162;2022-12-18T17:48:56;-1.10;99.90
6948;DHT22;3513;47.664;9.162;2022-12-18T17:54:57;-1.00;99.90
6948;DHT22;3513;47.664;9.162;2022-12-18T17:57:25;0.40;99.90
6948;DHT22;3513;47.664;9.162;2022-12-18T17:59:54;-1.00;99.90
6948;DHT22;3513;47.664;9.162;2022-12-18T18:02:58;-0.90;99.90
6948;DHT22;3513;47.664;9.162;2022-12-18T18:05:29;-1.00;99.90
6948;DHT22;3513;47.664;9.162;2022-12-18T18:08:40;-0.80;99.90
6948;DHT22;3513;47.664;9.162;2022-12-18T18:15:14;-1.60;99.90
6948;DHT22;3513;47.664;9.162;2022-12-18T18:18:16;0.00;99.90